Easy Runner Sodbury Slog
Skip Navigation Links
Results
Team Results
Live Leaderboard
Past Slog Results
Race Stats
Smartphone Results
11 Nov 2018
HyperLink
Click on you name for more detailed race data
Page 1 of 21 (1003 items)
[1]234567...18192021
Pos
Bib No
Fav
Share
Print
Name
Time
Chip Time
Category
Cat Pos
Gender
Gen Pos
Club
Pace
1855Ben RAWLINS1:03:39.91:03:38.4Top 31Male1WESTBURY HARRIERS 9.4 m/hr
21090James DONALD1:04:01.61:04:00.3Top 32Male2TEAM BATH ATHLETICS CLUB 9.4 m/hr
34Paul O'MARA1:04:09.11:04:08.3Top 33Male3TYNE BRIDGE HARRIERS 9.4 m/hr
41019Anthony GLOVER1:06:27.81:06:27.6VM401Male4  9.0 m/hr
51218Jasper TAYLOR1:09:24.01:08:58.4SenM1Male5  8.6 m/hr
6568Simon CARDNELL1:09:44.01:09:42.1SenM2Male6SOUTHVILLE RUNNING CLUB 8.6 m/hr
7524Brad COX1:10:01.01:10:00.0SenM3Male7BITTON ROAD RUNNERS 8.6 m/hr
8166Laurence HEWETSON1:10:16.61:10:15.9VM402Male8  8.5 m/hr
940Andrew WHITE1:10:22.11:10:19.3SenM4Male9  8.5 m/hr
10103Lee KIBBLE1:10:31.51:10:29.4SenM5Male10FOREST OF DEAN AC 8.5 m/hr
1132Thomas FRASER1:11:32.41:11:29.5SenM6Male11CLAPHAM CHASERS 8.4 m/hr
121094Dan ELMES1:11:39.61:11:37.3SenM7Male12SOMER AC 8.4 m/hr
13786Colin THOMPSON1:11:58.21:11:56.4VM403Male13FRAMPTON COTTERAL HARRIERS 8.3 m/hr
14840Matt JOHNSTONE1:12:25.41:12:25.4VM404Male14THORNBURY RC 8.3 m/hr
15949Annabel GRANGER1:12:41.81:12:39.3Top 31Female1BRISTOL AND WEST AC (EST. 1882) 8.3 m/hr
161035Jimmy DEANE1:13:20.91:13:18.6SenM8Male15  8.2 m/hr
171232Daryl PHILLIPS1:13:29.51:13:27.9SenM9Male16BRISTOL AND WEST AC (EST. 1882) 8.2 m/hr
18230Paul BRUTON1:13:50.41:13:48.4VM405Male17LLISWERRY RUNNERS 8.1 m/hr
19796Paul OXLEY1:13:55.01:13:32.1SenM10Male18  8.1 m/hr
20156Thomas MILLER1:14:02.41:13:59.3SenM11Male19  8.1 m/hr
2189Lewis WASSELL1:14:06.11:14:03.3SenM12Male20  8.1 m/hr
22517Rob FURLONG1:14:23.91:14:22.2VM406Male21WESTON ATHLETIC CLUB 8.1 m/hr
23924Reece ROGERS1:14:24.31:14:12.8SenM13Male22  8.1 m/hr
24185Wayne BEVAN1:14:32.71:14:28.6VM407Male23FOREST OF DEAN AC 8.0 m/hr
25330Nick BENNETT1:14:33.91:14:32.5SenM14Male24  8.0 m/hr
261106Michael CLEVELY1:14:44.91:14:42.4SenM15Male25  8.0 m/hr
271061John CURTIS1:14:51.21:14:51.2VM601Male26HOGWEED TROTTERS 8.0 m/hr
281196Melvin VAYLE1:14:57.61:14:55.2VM408Male27  8.0 m/hr
29843Andrew GRIFFITHS1:15:02.91:15:01.3VM501Male28FRAMPTON COTTERELL HARRIERS 8.0 m/hr
30878Karl ROEBUCK1:15:11.51:15:09.5VM409Male29  8.0 m/hr
31951Sophie VOLLER1:15:14.81:15:09.1Top 32Female2WESTBURY HARRIERS 8.0 m/hr
32255Joe MILLS1:15:17.71:15:15.6SenM16Male30  8.0 m/hr
33758Fiona BLACKMORE1:15:22.01:15:19.8Top 33Female3BITTON ROAD RUNNERS 8.0 m/hr
34117Richard BASHFORD1:15:24.61:15:22.4VM4010Male31  8.0 m/hr
35334Malcolm RITCHIE1:15:32.31:15:30.8VM4011Male32BRISTOL AND WEST AC (EST. 1882) 7.9 m/hr
36634Matt WOODWARD1:15:33.21:15:17.4VM4012Male33  7.9 m/hr
37414Stuart NEW1:15:46.51:15:45.7SenM17Male34  7.9 m/hr
381216Cameron POLLOCK1:16:16.41:15:50.8SenM18Male35  7.9 m/hr
391207Benedict BURGESS-SMITH1:16:17.71:15:53.1VM502Male36  7.9 m/hr
401213James LEWIS1:16:24.61:16:23.2SenM19Male37  7.9 m/hr
411197Steve KOCHER1:17:11.01:17:08.3SenM20Male38  7.8 m/hr
42797Richard WOODRUFF1:17:20.81:17:19.3SenM21Male39  7.8 m/hr
43234Matt POWELL1:17:34.31:17:28.7VM4013Male40BURNHAM ON SEA HARRIERS 7.7 m/hr
44882Will HILLIER1:17:50.51:17:46.9VM503Male41GREAT WESTERN RUNNERS 7.7 m/hr
45784Rob MCKILLOP1:17:57.31:17:43.8SenM22Male42  7.7 m/hr
4688Jane WASSELL1:18:09.41:18:06.6VL501Female4STROUD & DISTRICT AC 7.7 m/hr
47888Matt HILL1:18:12.41:17:59.4VM4014Male43  7.7 m/hr
48723Susan DUNCAN1:18:36.81:18:34.5VL351Female5WESTON ATHLETIC CLUB 7.6 m/hr
491104Leyton GREEN1:18:37.91:18:32.7VM4015Male44YEOVIL TOWN RRC 7.6 m/hr
50904Kev OWEN1:18:38.91:18:38.4VM4016Male45  7.6 m/hr
Page 1 of 21 (1003 items)
[1]234567...18192021
fb

HyperLink Copyright (c) G Vincent, 2018